createdAt,value
2019-04-06T00:02:15.030Z,14.49
2019-04-06T00:04:41.914Z,14.34
2019-04-06T00:07:08.550Z,14.44
2019-04-06T00:09:35.414Z,14.66
2019-04-06T00:12:02.007Z,14.85
2019-04-06T00:14:28.656Z,14.87
2019-04-06T00:16:56.041Z,14.89
2019-04-06T00:19:22.640Z,14.86
2019-04-06T00:21:49.301Z,14.75
2019-04-06T00:24:15.946Z,14.65
2019-04-06T00:26:42.839Z,14.54
2019-04-06T00:29:09.498Z,14.57
2019-04-06T00:31:36.387Z,14.55
2019-04-06T00:34:03.007Z,14.63
2019-04-06T00:36:29.870Z,14.61
2019-04-06T00:38:56.880Z,14.67
2019-04-06T00:41:24.215Z,14.65
2019-04-06T00:43:50.966Z,14.48
2019-04-06T00:46:17.583Z,14.32
2019-04-06T00:48:44.637Z,14.48
2019-04-06T00:51:11.220Z,14.46
2019-04-06T00:53:37.964Z,14.57
2019-04-06T00:56:04.564Z,14.61
2019-04-06T00:58:31.190Z,14.47
2019-04-06T01:00:58.036Z,14.39
2019-04-06T01:03:25.711Z,14.45
2019-04-06T01:05:52.377Z,14.65
2019-04-06T01:08:19.270Z,14.58
2019-04-06T01:10:45.871Z,14.76
2019-04-06T01:13:12.467Z,14.68
2019-04-06T01:15:39.365Z,14.68
2019-04-06T01:18:06.528Z,14.55
2019-04-06T01:20:33.542Z,14.44
2019-04-06T01:23:00.152Z,14.36
2019-04-06T01:28:12.277Z,14.45
2019-04-06T01:30:39.110Z,14.50
2019-04-06T01:33:05.813Z,14.56
2019-04-06T01:35:33.565Z,14.57
2019-04-06T01:38:00.163Z,14.54
2019-04-06T01:40:27.029Z,14.64
2019-04-06T01:42:53.662Z,14.63
2019-04-06T01:45:20.248Z,14.48
2019-04-06T01:47:46.861Z,14.41
2019-04-06T01:50:13.464Z,14.62
2019-04-06T01:52:40.367Z,14.56
2019-04-06T01:55:06.969Z,14.48
2019-04-06T01:57:33.841Z,14.42
2019-04-06T02:00:00.622Z,14.48
2019-04-06T02:02:27.435Z,14.62
2019-04-06T02:04:54.335Z,14.73
2019-04-06T02:07:22.068Z,14.80
2019-04-06T02:09:48.772Z,14.91
2019-04-06T02:12:15.374Z,14.91
2019-04-06T02:14:42.024Z,14.91
2019-04-06T02:17:08.884Z,14.85
2019-04-06T02:19:35.853Z,14.83
2019-04-06T02:22:02.490Z,14.80
2019-04-06T02:24:29.144Z,14.65
2019-04-06T02:26:55.762Z,14.57
2019-04-06T02:29:22.422Z,14.56
2019-04-06T02:31:49.150Z,14.63
2019-04-06T02:34:15.918Z,14.75
2019-04-06T02:36:42.900Z,14.76
2019-04-06T02:39:09.473Z,14.79
2019-04-06T02:41:36.635Z,14.85
2019-04-06T02:44:03.289Z,14.82
2019-04-06T02:46:31.172Z,14.82
2019-04-06T02:48:58.535Z,14.97
2019-04-06T02:51:25.203Z,14.99
2019-04-06T02:53:54.081Z,15.03
2019-04-06T02:56:20.423Z,14.87
2019-04-06T02:58:47.285Z,14.79
2019-04-06T03:01:14.044Z,14.85
2019-04-06T03:03:40.637Z,14.77
2019-04-06T03:06:07.215Z,14.79
2019-04-06T03:08:34.370Z,14.79
2019-04-06T03:11:01.107Z,14.75
2019-04-06T03:13:28.007Z,14.69
2019-04-06T03:15:54.596Z,14.63
2019-04-06T03:18:24.386Z,14.62
2019-04-06T03:20:51.218Z,14.75
2019-04-06T03:26:04.409Z,14.81
2019-04-06T03:28:31.252Z,14.75
2019-04-06T03:30:57.986Z,14.78
2019-04-06T03:33:24.825Z,14.78
2019-04-06T03:35:52.793Z,14.79
2019-04-06T03:38:19.512Z,14.78
2019-04-06T03:40:46.693Z,14.73
2019-04-06T03:43:13.394Z,14.69
2019-04-06T03:45:40.347Z,14.81
2019-04-06T03:48:06.963Z,14.87
2019-04-06T03:50:33.921Z,14.84
2019-04-06T03:53:00.727Z,14.71
2019-04-06T03:55:27.477Z,14.52
2019-04-06T03:57:54.408Z,14.44
2019-04-06T04:00:21.318Z,14.37
2019-04-06T04:02:48.287Z,14.29
2019-04-06T04:05:15.127Z,14.26
2019-04-06T04:07:41.673Z,14.16
2019-04-06T04:10:08.418Z,14.12
2019-04-06T04:12:36.029Z,14.31
2019-04-06T04:15:02.881Z,14.36
2019-04-06T04:17:30.705Z,14.40
2019-04-06T04:19:57.552Z,14.30
2019-04-06T04:22:25.248Z,14.17
2019-04-06T04:24:51.882Z,14.13
2019-04-06T04:27:28.544Z,14.04
2019-04-06T04:35:05.312Z,13.96
2019-04-06T04:37:32.096Z,13.94
2019-04-06T04:39:58.985Z,14.01
2019-04-06T04:42:25.698Z,13.91
2019-04-06T04:44:52.281Z,13.97
2019-04-06T04:47:38.702Z,13.98
2019-04-06T04:50:05.364Z,13.94
2019-04-06T04:52:32.231Z,13.94
2019-04-06T04:54:59.208Z,14.11
2019-04-06T04:57:26.198Z,14.42
2019-04-06T04:59:52.996Z,14.48
2019-04-06T05:02:19.653Z,14.29
2019-04-06T05:04:46.377Z,14.37
2019-04-06T05:07:13.430Z,14.42
2019-04-06T05:09:40.182Z,14.45
2019-04-06T05:17:23.402Z,14.30
2019-04-06T05:19:50.530Z,14.32
2019-04-06T05:22:17.531Z,14.39
2019-04-06T05:27:29.877Z,14.19
2019-04-06T05:29:56.607Z,14.22
2019-04-06T05:32:23.773Z,14.20
2019-04-06T05:34:50.452Z,14.34
2019-04-06T05:37:17.637Z,14.25
2019-04-06T05:39:44.951Z,14.24
2019-04-06T05:42:12.809Z,14.22
2019-04-06T05:44:39.637Z,14.32
2019-04-06T05:47:06.703Z,14.25
2019-04-06T05:49:33.531Z,14.27
2019-04-06T05:52:10.148Z,14.39
2019-04-06T05:59:54.493Z,14.22
2019-04-06T06:02:21.612Z,14.15
2019-04-06T06:04:56.420Z,14.22
2019-04-06T06:07:23.511Z,14.36
2019-04-06T06:09:50.074Z,14.27
2019-04-06T06:12:18.291Z,13.99
2019-04-06T06:14:45.057Z,13.63
2019-04-06T06:17:14.176Z,13.54
2019-04-06T06:19:40.458Z,13.67
2019-04-06T06:22:07.355Z,13.77
2019-04-06T06:24:34.839Z,13.82
2019-04-06T06:27:01.768Z,13.94
2019-04-06T06:29:28.439Z,13.97
2019-04-06T06:31:55.157Z,14.04
2019-04-06T06:34:21.725Z,14.14
2019-04-06T06:36:48.326Z,14.20
2019-04-06T06:39:15.060Z,14.33
2019-04-06T06:41:41.941Z,14.24
2019-04-06T06:44:09.001Z,14.32
2019-04-06T06:46:35.965Z,14.49
2019-04-06T06:49:02.672Z,14.45
2019-04-06T06:51:29.667Z,14.59
2019-04-06T06:53:56.538Z,14.43
2019-04-06T06:56:23.593Z,14.37
2019-04-06T06:58:50.440Z,14.51
2019-04-06T07:01:17.087Z,14.81
2019-04-06T07:03:43.706Z,14.82
2019-04-06T07:06:10.287Z,14.97
2019-04-06T07:08:37.718Z,15.16
2019-04-06T07:11:05.382Z,15.41
2019-04-06T07:13:32.307Z,15.38
2019-04-06T07:15:58.908Z,15.09
2019-04-06T07:18:26.588Z,15.13
2019-04-06T07:20:53.180Z,15.49
2019-04-06T07:26:06.882Z,15.83
2019-04-06T07:28:38.103Z,15.96
2019-04-06T07:31:04.107Z,16.01
2019-04-06T07:33:33.178Z,15.86
2019-04-06T07:36:02.039Z,15.53
2019-04-06T07:38:29.642Z,15.72
2019-04-06T07:40:59.703Z,15.82
2019-04-06T07:43:29.382Z,15.68
2019-04-06T07:45:59.976Z,15.44
2019-04-06T07:48:29.300Z,15.37
2019-04-06T07:50:57.218Z,15.58
2019-04-06T07:53:27.414Z,15.67
2019-04-06T07:58:30.745Z,15.81
2019-04-06T08:00:58.622Z,15.72
2019-04-06T08:03:26.230Z,15.77
2019-04-06T08:05:57.249Z,15.79
2019-04-06T08:08:24.606Z,15.66
2019-04-06T08:10:52.407Z,15.72
2019-04-06T08:13:23.027Z,15.94
2019-04-06T08:15:53.447Z,16.28
2019-04-06T08:18:22.579Z,16.37
2019-04-06T08:20:51.812Z,16.04
2019-04-06T08:23:24.339Z,15.87
2019-04-06T08:25:51.966Z,16.01
2019-04-06T08:28:20.674Z,16.16
2019-04-06T08:30:51.702Z,16.05
2019-04-06T08:33:21.782Z,16.01
2019-04-06T08:35:50.996Z,16.15
2019-04-06T08:38:21.959Z,16.20
2019-04-06T08:40:48.759Z,16.10
2019-04-06T08:43:17.080Z,16.17
2019-04-06T08:45:46.231Z,16.04
2019-04-06T08:48:13.825Z,15.81
2019-04-06T08:50:44.097Z,15.78
2019-04-06T08:53:11.976Z,15.81
2019-04-06T08:55:43.230Z,15.75
2019-04-06T08:58:12.433Z,15.76
2019-04-06T09:00:42.113Z,15.73
2019-04-06T09:03:08.797Z,15.71
2019-04-06T09:05:35.512Z,15.89
2019-04-06T09:08:02.266Z,16.10
2019-04-06T09:10:29.153Z,16.05
2019-04-06T09:12:55.779Z,16.13
2019-04-06T09:15:22.750Z,15.99
2019-04-06T09:17:49.595Z,15.83
2019-04-06T09:20:16.207Z,15.67
2019-04-06T09:22:42.794Z,15.59
2019-04-06T09:27:55.503Z,15.46
2019-04-06T09:30:23.049Z,15.42
2019-04-06T09:32:50.675Z,15.72
2019-04-06T09:35:20.868Z,15.81
2019-04-06T09:37:47.677Z,15.55
2019-04-06T09:40:14.274Z,15.55
2019-04-06T09:42:42.058Z,15.79
2019-04-06T09:45:09.660Z,15.87
2019-04-06T09:47:37.267Z,15.83
2019-04-06T09:50:04.017Z,16.04
2019-04-06T09:52:32.106Z,16.15
2019-04-06T09:55:05.119Z,15.97
2019-04-06T09:57:32.622Z,15.81
2019-04-06T10:00:02.093Z,15.58
2019-04-06T10:02:32.041Z,15.79
2019-04-06T10:04:59.049Z,16.31
2019-04-06T10:07:28.937Z,16.45
2019-04-06T10:09:57.562Z,16.48
2019-04-06T10:12:27.605Z,16.30
2019-04-06T10:14:55.229Z,16.22
2019-04-06T10:17:23.177Z,15.89
2019-04-06T10:19:54.699Z,15.80
2019-04-06T10:22:22.296Z,15.77
2019-04-06T10:24:52.028Z,16.00
2019-04-06T10:27:20.624Z,16.23
2019-04-06T10:29:50.165Z,16.50
2019-04-06T10:32:19.256Z,16.75
2019-04-06T10:34:48.751Z,16.78
2019-04-06T10:37:16.982Z,16.60
2019-04-06T10:39:46.999Z,16.48
2019-04-06T10:42:22.255Z,16.79
2019-04-06T10:44:47.317Z,16.76
2019-04-06T10:47:15.027Z,16.46
2019-04-06T10:49:59.989Z,16.64
2019-04-06T10:52:29.224Z,16.66
2019-04-06T10:54:57.109Z,17.02
2019-04-06T10:57:26.084Z,17.00
2019-04-06T11:00:00.681Z,17.18
2019-04-06T11:02:26.690Z,17.42
2019-04-06T11:04:54.124Z,17.62
2019-04-06T11:07:21.745Z,17.64
2019-04-06T11:09:51.727Z,17.16
2019-04-06T11:12:18.311Z,16.87
2019-04-06T11:14:49.574Z,16.83
2019-04-06T11:17:17.194Z,17.08
2019-04-06T11:19:44.727Z,16.89
2019-04-06T11:22:12.333Z,16.77
2019-04-06T11:27:28.852Z,17.11
2019-04-06T11:29:55.464Z,17.14
2019-04-06T11:32:22.142Z,17.72
2019-04-06T11:34:55.199Z,18.43
2019-04-06T11:37:31.802Z,19.02
2019-04-06T11:39:58.733Z,18.88
2019-04-06T11:42:42.759Z,18.88
2019-04-06T11:45:09.403Z,18.82
2019-04-06T11:47:36.707Z,18.66
2019-04-06T11:50:03.383Z,18.58
2019-04-06T11:52:32.185Z,18.66
2019-04-06T11:54:58.802Z,18.52
2019-04-06T11:57:28.793Z,18.98
2019-04-06T12:00:00.762Z,18.89
2019-04-06T12:02:27.120Z,18.55
2019-04-06T12:04:53.902Z,18.73
2019-04-06T12:07:20.833Z,18.88
2019-04-06T12:09:48.028Z,19.07
2019-04-06T12:12:14.992Z,19.45
2019-04-06T12:14:42.253Z,19.35
2019-04-06T12:17:17.615Z,19.16
2019-04-06T12:19:44.476Z,18.91
2019-04-06T12:22:11.962Z,19.16
2019-04-06T12:24:39.289Z,19.29
2019-04-06T12:27:06.260Z,19.34
2019-04-06T12:29:33.184Z,18.93
2019-04-06T12:31:59.951Z,19.12
2019-04-06T12:34:27.093Z,18.86
2019-04-06T12:36:53.792Z,18.82
2019-04-06T12:39:20.618Z,18.99
2019-04-06T12:41:47.480Z,19.34
2019-04-06T12:44:14.571Z,19.35
2019-04-06T12:46:41.307Z,19.40
2019-04-06T12:49:07.908Z,19.48
2019-04-06T12:51:35.016Z,19.62
2019-04-06T12:54:01.641Z,19.78
2019-04-06T12:56:28.295Z,19.77
2019-04-06T12:58:55.213Z,19.27
2019-04-06T13:01:23.056Z,19.21
2019-04-06T13:03:50.968Z,19.49
2019-04-06T13:06:18.680Z,19.79
2019-04-06T13:08:45.662Z,20.21
2019-04-06T13:11:13.238Z,19.65
2019-04-06T13:13:40.215Z,19.26
2019-04-06T13:16:07.037Z,19.07
2019-04-06T13:18:33.900Z,19.02
2019-04-06T13:21:00.498Z,19.00
2019-04-06T13:23:27.082Z,18.65
2019-04-06T13:25:54.149Z,18.65
2019-04-06T13:28:20.933Z,18.64
2019-04-06T13:30:47.808Z,18.70
2019-04-06T13:33:14.477Z,18.75
2019-04-06T13:35:41.382Z,19.10
2019-04-06T13:38:08.138Z,19.34
2019-04-06T13:40:35.012Z,19.47
2019-04-06T13:43:01.645Z,19.36
2019-04-06T13:45:28.494Z,19.55
2019-04-06T13:47:55.131Z,19.30
2019-04-06T13:50:22.252Z,19.21
2019-04-06T13:52:49.321Z,19.15
2019-04-06T13:55:15.949Z,18.98
2019-04-06T13:57:46.236Z,18.68
2019-04-06T14:00:12.993Z,18.74
2019-04-06T14:02:41.268Z,18.87
2019-04-06T14:05:07.874Z,20.03
2019-04-06T14:07:34.772Z,19.39
2019-04-06T14:10:02.182Z,19.29
2019-04-06T14:12:29.348Z,19.30
2019-04-06T14:14:59.398Z,19.00
2019-04-06T14:17:27.149Z,18.79
2019-04-06T14:19:55.165Z,18.75
2019-04-06T14:22:22.801Z,18.84
2019-04-06T14:24:52.622Z,18.91
2019-04-06T14:27:19.449Z,18.93
2019-04-06T14:29:46.846Z,18.97
2019-04-06T14:32:14.724Z,19.17
2019-04-06T14:34:42.126Z,19.32
2019-04-06T14:37:09.708Z,19.31
2019-04-06T14:39:37.371Z,18.75
2019-04-06T14:42:05.040Z,18.59
2019-04-06T14:44:32.862Z,18.65
2019-04-06T14:46:59.713Z,18.93
2019-04-06T14:49:30.738Z,18.91
2019-04-06T14:51:58.640Z,18.71
2019-04-06T14:54:27.123Z,18.54
2019-04-06T14:56:55.084Z,18.76
2019-04-06T14:59:22.688Z,18.67
2019-04-06T15:01:57.770Z,18.61
2019-04-06T15:04:18.409Z,18.65
2019-04-06T15:06:46.131Z,18.65
2019-04-06T15:09:14.097Z,18.64
2019-04-06T15:11:40.866Z,18.71
2019-04-06T15:14:08.774Z,18.48
2019-04-06T15:16:37.875Z,18.32
2019-04-06T15:19:04.870Z,18.43
2019-04-06T15:21:32.543Z,18.56
2019-04-06T15:24:00.561Z,18.69
2019-04-06T15:26:28.474Z,18.68
2019-04-06T15:29:05.485Z,18.50
2019-04-06T15:31:33.240Z,18.51
2019-04-06T15:33:59.973Z,18.45
2019-04-06T15:36:27.809Z,18.49
2019-04-06T15:38:54.755Z,18.52
2019-04-06T15:41:22.577Z,18.33
2019-04-06T15:43:50.678Z,18.13
2019-04-06T15:46:17.763Z,18.09
2019-04-06T15:48:44.549Z,18.31
2019-04-06T15:51:12.074Z,18.37
2019-04-06T15:53:38.670Z,18.46
2019-04-06T15:56:05.692Z,18.40
2019-04-06T15:58:32.467Z,18.54
2019-04-06T16:00:59.294Z,18.73
2019-04-06T16:03:26.915Z,18.57
2019-04-06T16:05:57.763Z,18.48
2019-04-06T16:08:27.663Z,18.48
2019-04-06T16:10:54.533Z,18.31
2019-04-06T16:13:22.510Z,18.26
2019-04-06T16:15:50.228Z,18.28
2019-04-06T16:18:17.672Z,18.38
2019-04-06T16:20:44.302Z,18.35
2019-04-06T16:23:12.014Z,18.11
2019-04-06T16:25:39.798Z,18.22
2019-04-06T16:28:06.389Z,18.37
2019-04-06T16:30:34.470Z,17.96
2019-04-06T16:33:01.928Z,17.81
2019-04-06T16:35:29.800Z,17.88
2019-04-06T16:37:57.601Z,17.98
2019-04-06T16:40:24.201Z,18.10
2019-04-06T16:42:51.555Z,18.13
2019-04-06T16:45:18.226Z,18.17
2019-04-06T16:47:46.113Z,18.11
2019-04-06T16:50:12.689Z,18.01
2019-04-06T16:52:39.280Z,18.00
2019-04-06T16:55:05.925Z,18.08
2019-04-06T16:57:33.086Z,18.06
2019-04-06T16:59:59.772Z,17.97
2019-04-06T17:02:30.453Z,17.94
2019-04-06T17:04:58.289Z,17.92
2019-04-06T17:07:26.311Z,17.91
2019-04-06T17:09:54.074Z,17.93
2019-04-06T17:12:22.185Z,17.71
2019-04-06T17:14:51.898Z,17.74
2019-04-06T17:17:18.675Z,17.74
2019-04-06T17:19:45.476Z,17.81
2019-04-06T17:22:12.500Z,17.84
2019-04-06T17:27:17.789Z,17.45
2019-04-06T17:29:44.921Z,17.41
2019-04-06T17:32:13.296Z,17.41
2019-04-06T17:34:52.753Z,17.37
2019-04-06T17:37:27.568Z,17.34
2019-04-06T17:39:54.993Z,17.37
2019-04-06T17:42:24.041Z,17.42
2019-04-06T17:44:54.583Z,17.63
2019-04-06T17:47:25.684Z,17.63
2019-04-06T17:49:50.661Z,17.55
2019-04-06T17:52:17.375Z,17.51
2019-04-06T17:55:08.395Z,17.49
2019-04-06T17:57:12.929Z,17.35
2019-04-06T17:59:41.494Z,17.24
2019-04-06T18:02:12.241Z,17.12
2019-04-06T18:04:42.431Z,17.05
2019-04-06T18:09:59.331Z,17.02
2019-04-06T18:12:26.419Z,17.02
2019-04-06T18:14:55.247Z,17.04
2019-04-06T18:17:25.492Z,17.20
2019-04-06T18:19:53.681Z,17.19
2019-04-06T18:22:41.603Z,17.14
2019-04-06T18:24:59.475Z,17.20
2019-04-06T18:27:27.906Z,17.16
2019-04-06T18:29:56.728Z,17.10
2019-04-06T18:32:28.287Z,17.05
2019-04-06T18:34:58.518Z,17.08
2019-04-06T18:37:25.694Z,16.95
2019-04-06T18:39:54.707Z,16.94
2019-04-06T18:42:26.103Z,17.00
2019-04-06T18:45:05.281Z,17.00
2019-04-06T18:59:06.170Z,17.10
2019-04-06T19:01:19.547Z,17.12
2019-04-06T19:06:56.353Z,16.95
2019-04-06T19:15:01.587Z,16.83
2019-04-06T19:17:31.876Z,16.70
2019-04-06T19:19:58.635Z,16.67
2019-04-06T19:22:25.532Z,16.55
2019-04-06T19:24:53.371Z,16.52
2019-04-06T19:27:29.964Z,16.60
2019-04-06T19:30:08.793Z,16.62
2019-04-06T19:32:38.963Z,16.68
2019-04-06T19:35:12.140Z,16.85
2019-04-06T19:40:23.946Z,16.95
2019-04-06T19:42:56.389Z,16.93
2019-04-06T19:45:24.978Z,16.93
2019-04-06T19:47:51.860Z,16.97
2019-04-06T19:50:18.781Z,16.83
2019-04-06T19:52:54.023Z,16.68
2019-04-06T19:55:21.402Z,16.60
2019-04-06T19:57:50.668Z,16.48
2019-04-06T20:00:17.814Z,16.59
2019-04-06T20:02:44.816Z,16.78
2019-04-06T20:05:14.502Z,16.86
2019-04-06T20:07:47.118Z,16.84
2019-04-06T20:10:15.103Z,16.79
2019-04-06T20:12:41.834Z,16.69
2019-04-06T20:15:09.518Z,16.68
2019-04-06T20:17:37.490Z,16.60
2019-04-06T20:20:05.395Z,16.55
2019-04-06T20:22:34.153Z,16.59
2019-04-06T20:25:02.145Z,16.66
2019-04-06T20:27:29.095Z,16.66
2019-04-06T20:29:56.707Z,16.65
2019-04-06T20:32:23.851Z,16.56
2019-04-06T20:34:52.111Z,16.52
2019-04-06T20:37:20.595Z,16.45
2019-04-06T20:39:47.701Z,16.40
2019-04-06T20:42:14.462Z,16.40
2019-04-06T20:44:42.733Z,16.34
2019-04-06T20:47:09.398Z,16.41
2019-04-06T20:49:37.373Z,16.45
2019-04-06T20:52:04.489Z,16.44
2019-04-06T20:54:31.899Z,16.38
2019-04-06T20:56:59.805Z,16.35
2019-04-06T20:59:26.603Z,16.33
2019-04-06T21:01:54.332Z,16.26
2019-04-06T21:04:21.232Z,16.25
2019-04-06T21:06:49.263Z,16.11
2019-04-06T21:09:16.181Z,16.02
2019-04-06T21:11:43.917Z,15.94
2019-04-06T21:14:11.560Z,15.83
2019-04-06T21:16:39.240Z,15.75
2019-04-06T21:19:07.019Z,15.74
2019-04-06T21:21:35.303Z,15.88
2019-04-06T21:24:04.696Z,15.92
2019-04-06T21:26:32.474Z,15.96
2019-04-06T21:28:59.251Z,16.06
2019-04-06T21:31:25.825Z,16.00
2019-04-06T21:33:52.972Z,15.93
2019-04-06T21:36:19.566Z,15.85
2019-04-06T21:38:46.400Z,15.76
2019-04-06T21:41:13.720Z,15.69
2019-04-06T21:43:41.579Z,15.68
2019-04-06T21:46:09.272Z,15.67
2019-04-06T21:48:35.941Z,15.65
2019-04-06T21:51:03.107Z,15.59
2019-04-06T21:53:29.898Z,15.55
2019-04-06T21:56:03.434Z,15.47
2019-04-06T21:58:25.507Z,15.43
2019-04-06T22:00:52.682Z,15.42
2019-04-06T22:03:19.287Z,15.54
2019-04-06T22:05:46.436Z,15.59
2019-04-06T22:08:13.428Z,15.66
2019-04-06T22:10:40.487Z,15.56
2019-04-06T22:13:07.083Z,15.44
2019-04-06T22:15:33.999Z,15.29
2019-04-06T22:18:01.141Z,15.24
2019-04-06T22:20:28.147Z,15.25
2019-04-06T22:22:54.962Z,15.31
2019-04-06T22:25:22.534Z,15.32
2019-04-06T22:27:49.294Z,15.32
2019-04-06T22:30:18.712Z,15.47
2019-04-06T22:32:44.962Z,15.34
2019-04-06T22:35:11.628Z,15.48
2019-04-06T22:37:38.604Z,15.56
2019-04-06T22:40:05.472Z,15.46
2019-04-06T22:42:32.078Z,15.19
2019-04-06T22:44:58.842Z,15.08
2019-04-06T22:47:25.526Z,15.12
2019-04-06T22:49:52.156Z,15.25
2019-04-06T22:52:19.693Z,15.29
2019-04-06T22:54:46.402Z,15.31
2019-04-06T22:57:13.415Z,15.11
2019-04-06T23:02:12.271Z,15.28
2019-04-06T23:04:47.582Z,15.29
2019-04-06T23:07:07.550Z,15.21
2019-04-06T23:09:34.402Z,15.02
2019-04-06T23:12:00.997Z,14.96
2019-04-06T23:14:28.422Z,14.99
2019-04-06T23:16:55.390Z,15.14
2019-04-06T23:19:22.578Z,15.24
2019-04-06T23:21:49.283Z,15.31
2019-04-06T23:27:01.434Z,15.36
2019-04-06T23:29:28.205Z,15.22
2019-04-06T23:31:54.969Z,15.13
2019-04-06T23:34:21.957Z,15.17
2019-04-06T23:36:50.028Z,15.26
2019-04-06T23:39:17.227Z,15.24
2019-04-06T23:41:43.865Z,15.06
2019-04-06T23:44:10.751Z,15.02
2019-04-06T23:46:37.348Z,14.92
2019-04-06T23:49:04.192Z,14.94
2019-04-06T23:51:31.420Z,14.92
2019-04-06T23:53:58.514Z,14.90
2019-04-06T23:56:25.434Z,14.90
2019-04-06T23:58:52.361Z,14.75
